sensor_id;sensor_type;location;lat;lon;timestamp;pressure;altitude;pressure_sealevel;temperature;humidity
76229;BME280;65021;53.174;18.160;2024-01-30T00:00:41;102543.32;;;-2.19;84.60
76229;BME280;65021;53.174;18.160;2024-01-30T00:03:28;102547.67;;;-2.26;84.54
76229;BME280;65021;53.174;18.160;2024-01-30T00:05:56;102545.66;;;-2.26;84.51
76229;BME280;65021;53.174;18.160;2024-01-30T00:08:22;102544.79;;;-2.25;84.34
76229;BME280;65021;53.174;18.160;2024-01-30T00:10:49;102541.54;;;-2.27;84.40
76229;BME280;65021;53.174;18.160;2024-01-30T00:13:16;102535.84;;;-2.28;84.31
76229;BME280;65021;53.174;18.160;2024-01-30T00:15:45;102535.55;;;-2.28;84.36
76229;BME280;65021;53.174;18.160;2024-01-30T00:18:11;102538.29;;;-2.29;84.37
76229;BME280;65021;53.174;18.160;2024-01-30T00:20:38;102534.27;;;-2.23;84.51
76229;BME280;65021;53.174;18.160;2024-01-30T00:23:05;102534.41;;;-2.13;84.64
76229;BME280;65021;53.174;18.160;2024-01-30T00:25:31;102533.56;;;-2.15;84.57
76229;BME280;65021;53.174;18.160;2024-01-30T00:27:59;102532.09;;;-2.18;84.46
76229;BME280;65021;53.174;18.160;2024-01-30T00:30:26;102533.39;;;-2.20;84.51
76229;BME280;65021;53.174;18.160;2024-01-30T00:32:53;102535.91;;;-2.15;84.49
76229;BME280;65021;53.174;18.160;2024-01-30T00:35:20;102535.50;;;-2.16;84.53
76229;BME280;65021;53.174;18.160;2024-01-30T00:37:48;102531.81;;;-2.19;84.60
76229;BME280;65021;53.174;18.160;2024-01-30T00:40:15;102529.48;;;-2.22;84.49
76229;BME280;65021;53.174;18.160;2024-01-30T00:42:42;102524.27;;;-2.24;84.49
76229;BME280;65021;53.174;18.160;2024-01-30T00:45:16;102521.86;;;-2.26;84.45
76229;BME280;65021;53.174;18.160;2024-01-30T00:47:43;102520.37;;;-2.26;84.44
76229;BME280;65021;53.174;18.160;2024-01-30T00:50:10;102519.16;;;-2.23;84.63
76229;BME280;65021;53.174;18.160;2024-01-30T00:52:37;102515.69;;;-2.20;84.48
76229;BME280;65021;53.174;18.160;2024-01-30T00:55:05;102512.29;;;-2.20;84.48
76229;BME280;65021;53.174;18.160;2024-01-30T00:57:32;102516.71;;;-2.18;84.54
76229;BME280;65021;53.174;18.160;2024-01-30T00:59:58;102524.38;;;-2.14;84.52
76229;BME280;65021;53.174;18.160;2024-01-30T01:02:25;102521.38;;;-2.13;84.56
76229;BME280;65021;53.174;18.160;2024-01-30T01:04:51;102521.83;;;-2.12;84.49
76229;BME280;65021;53.174;18.160;2024-01-30T01:07:18;102521.98;;;-2.12;84.61
76229;BME280;65021;53.174;18.160;2024-01-30T01:09:45;102524.11;;;-2.11;84.47
76229;BME280;65021;53.174;18.160;2024-01-30T01:12:11;102519.70;;;-2.11;84.61
76229;BME280;65021;53.174;18.160;2024-01-30T01:14:38;102516.09;;;-2.12;84.49
76229;BME280;65021;53.174;18.160;2024-01-30T01:17:04;102512.02;;;-2.16;84.47
76229;BME280;65021;53.174;18.160;2024-01-30T01:19:31;102511.85;;;-2.16;84.48
76229;BME280;65021;53.174;18.160;2024-01-30T01:21:57;102512.84;;;-2.16;84.54
76229;BME280;65021;53.174;18.160;2024-01-30T01:24:24;102514.00;;;-2.20;84.51
76229;BME280;65021;53.174;18.160;2024-01-30T01:26:51;102511.58;;;-2.23;84.41
76229;BME280;65021;53.174;18.160;2024-01-30T01:29:17;102508.33;;;-2.28;84.49
76229;BME280;65021;53.174;18.160;2024-01-30T01:31:44;102509.95;;;-2.29;84.35
76229;BME280;65021;53.174;18.160;2024-01-30T01:34:11;102506.27;;;-2.27;84.38
76229;BME280;65021;53.174;18.160;2024-01-30T01:36:38;102505.73;;;-2.24;84.44
76229;BME280;65021;53.174;18.160;2024-01-30T01:39:05;102506.71;;;-2.24;84.63
76229;BME280;65021;53.174;18.160;2024-01-30T01:41:33;102506.38;;;-2.20;84.83
76229;BME280;65021;53.174;18.160;2024-01-30T01:44:00;102507.14;;;-2.16;84.82
76229;BME280;65021;53.174;18.160;2024-01-30T01:46:27;102510.85;;;-2.16;84.78
76229;BME280;65021;53.174;18.160;2024-01-30T01:48:55;102513.56;;;-2.14;84.93
76229;BME280;65021;53.174;18.160;2024-01-30T01:51:22;102511.51;;;-2.12;84.89
76229;BME280;65021;53.174;18.160;2024-01-30T01:53:51;102510.45;;;-2.16;84.79
76229;BME280;65021;53.174;18.160;2024-01-30T01:56:18;102512.71;;;-2.16;84.94
76229;BME280;65021;53.174;18.160;2024-01-30T01:58:46;102513.67;;;-2.20;84.87
76229;BME280;65021;53.174;18.160;2024-01-30T02:01:14;102508.20;;;-2.26;84.82
76229;BME280;65021;53.174;18.160;2024-01-30T02:03:42;102501.15;;;-2.31;84.62
76229;BME280;65021;53.174;18.160;2024-01-30T02:06:09;102503.16;;;-2.35;84.58
76229;BME280;65021;53.174;18.160;2024-01-30T02:08:37;102509.34;;;-2.36;84.56
76229;BME280;65021;53.174;18.160;2024-01-30T02:11:04;102506.58;;;-2.31;84.78
76229;BME280;65021;53.174;18.160;2024-01-30T02:13:31;102508.15;;;-2.32;84.79
76229;BME280;65021;53.174;18.160;2024-01-30T02:15:57;102506.74;;;-2.36;84.78
76229;BME280;65021;53.174;18.160;2024-01-30T02:18:24;102504.96;;;-2.41;84.65
76229;BME280;65021;53.174;18.160;2024-01-30T02:20:53;102503.37;;;-2.49;84.60
76229;BME280;65021;53.174;18.160;2024-01-30T02:23:20;102501.80;;;-2.55;84.56
76229;BME280;65021;53.174;18.160;2024-01-30T02:25:46;102507.38;;;-2.62;84.43
76229;BME280;65021;53.174;18.160;2024-01-30T02:28:14;102504.52;;;-2.69;84.40
76229;BME280;65021;53.174;18.160;2024-01-30T02:30:42;102500.59;;;-2.75;84.50
76229;BME280;65021;53.174;18.160;2024-01-30T02:33:09;102500.49;;;-2.78;84.37
76229;BME280;65021;53.174;18.160;2024-01-30T02:35:36;102502.74;;;-2.81;84.35
76229;BME280;65021;53.174;18.160;2024-01-30T02:38:03;102502.66;;;-2.82;84.40
76229;BME280;65021;53.174;18.160;2024-01-30T02:40:30;102501.00;;;-2.82;84.44
76229;BME280;65021;53.174;18.160;2024-01-30T02:42:58;102496.96;;;-2.82;84.44
76229;BME280;65021;53.174;18.160;2024-01-30T02:45:25;102496.55;;;-2.84;84.61
76229;BME280;65021;53.174;18.160;2024-01-30T02:47:52;102494.59;;;-2.85;84.44
76229;BME280;65021;53.174;18.160;2024-01-30T02:50:18;102497.87;;;-2.86;84.44
76229;BME280;65021;53.174;18.160;2024-01-30T02:52:45;102495.42;;;-2.87;84.46
76229;BME280;65021;53.174;18.160;2024-01-30T02:55:12;102497.27;;;-2.87;84.46
76229;BME280;65021;53.174;18.160;2024-01-30T02:57:39;102497.83;;;-2.85;84.45
76229;BME280;65021;53.174;18.160;2024-01-30T03:00:06;102496.03;;;-2.86;84.51
76229;BME280;65021;53.174;18.160;2024-01-30T03:02:36;102495.58;;;-2.89;84.48
76229;BME280;65021;53.174;18.160;2024-01-30T03:05:05;102492.77;;;-2.90;84.54
76229;BME280;65021;53.174;18.160;2024-01-30T03:07:31;102492.97;;;-2.90;84.37
76229;BME280;65021;53.174;18.160;2024-01-30T03:09:59;102490.27;;;-2.88;84.51
76229;BME280;65021;53.174;18.160;2024-01-30T03:12:26;102488.80;;;-2.84;84.63
76229;BME280;65021;53.174;18.160;2024-01-30T03:14:53;102490.10;;;-2.79;84.73
76229;BME280;65021;53.174;18.160;2024-01-30T03:17:19;102491.90;;;-2.74;84.70
76229;BME280;65021;53.174;18.160;2024-01-30T03:19:45;102493.08;;;-2.69;84.82
76229;BME280;65021;53.174;18.160;2024-01-30T03:22:12;102495.34;;;-2.63;84.73
76229;BME280;65021;53.174;18.160;2024-01-30T03:24:39;102498.95;;;-2.55;84.87
76229;BME280;65021;53.174;18.160;2024-01-30T03:27:05;102492.92;;;-2.47;85.00
76229;BME280;65021;53.174;18.160;2024-01-30T03:29:32;102496.95;;;-2.38;84.96
76229;BME280;65021;53.174;18.160;2024-01-30T03:31:59;102497.13;;;-2.29;85.15
76229;BME280;65021;53.174;18.160;2024-01-30T03:34:25;102497.85;;;-2.21;85.20
76229;BME280;65021;53.174;18.160;2024-01-30T03:36:52;102493.84;;;-2.12;85.33
76229;BME280;65021;53.174;18.160;2024-01-30T03:39:19;102494.29;;;-2.07;85.25
76229;BME280;65021;53.174;18.160;2024-01-30T03:41:45;102491.86;;;-2.02;85.23
76229;BME280;65021;53.174;18.160;2024-01-30T03:44:12;102491.98;;;-1.97;85.15
76229;BME280;65021;53.174;18.160;2024-01-30T03:46:38;102488.62;;;-1.93;85.32
76229;BME280;65021;53.174;18.160;2024-01-30T03:49:05;102485.95;;;-1.90;85.14
76229;BME280;65021;53.174;18.160;2024-01-30T03:51:31;102490.27;;;-1.89;85.14
76229;BME280;65021;53.174;18.160;2024-01-30T03:53:58;102494.76;;;-1.88;85.05
76229;BME280;65021;53.174;18.160;2024-01-30T03:56:24;102496.64;;;-1.88;85.09
76229;BME280;65021;53.174;18.160;2024-01-30T03:58:52;102493.60;;;-1.90;84.93
76229;BME280;65021;53.174;18.160;2024-01-30T04:01:18;102492.31;;;-1.93;84.96
76229;BME280;65021;53.174;18.160;2024-01-30T04:03:45;102492.02;;;-1.98;84.83
76229;BME280;65021;53.174;18.160;2024-01-30T04:06:12;102492.83;;;-2.02;84.69
76229;BME280;65021;53.174;18.160;2024-01-30T04:08:38;102492.46;;;-2.06;84.64
76229;BME280;65021;53.174;18.160;2024-01-30T04:11:05;102490.98;;;-2.08;84.61
76229;BME280;65021;53.174;18.160;2024-01-30T04:13:33;102492.78;;;-2.10;84.56
76229;BME280;65021;53.174;18.160;2024-01-30T04:16:00;102490.84;;;-2.11;84.52
76229;BME280;65021;53.174;18.160;2024-01-30T04:18:29;102491.14;;;-2.10;84.67
76229;BME280;65021;53.174;18.160;2024-01-30T04:20:56;102489.66;;;-2.11;84.65
76229;BME280;65021;53.174;18.160;2024-01-30T04:23:22;102492.89;;;-2.11;84.78
76229;BME280;65021;53.174;18.160;2024-01-30T04:25:49;102489.89;;;-2.14;84.68
76229;BME280;65021;53.174;18.160;2024-01-30T04:28:15;102484.14;;;-2.18;84.68
76229;BME280;65021;53.174;18.160;2024-01-30T04:30:42;102485.68;;;-2.20;84.59
76229;BME280;65021;53.174;18.160;2024-01-30T04:33:09;102484.81;;;-2.22;84.57
76229;BME280;65021;53.174;18.160;2024-01-30T04:35:36;102482.63;;;-2.23;84.59
76229;BME280;65021;53.174;18.160;2024-01-30T04:38:03;102485.91;;;-2.21;84.64
76229;BME280;65021;53.174;18.160;2024-01-30T04:40:29;102484.09;;;-2.20;84.71
76229;BME280;65021;53.174;18.160;2024-01-30T04:42:56;102486.42;;;-2.17;84.78
76229;BME280;65021;53.174;18.160;2024-01-30T04:45:22;102488.34;;;-2.11;84.95
76229;BME280;65021;53.174;18.160;2024-01-30T04:47:49;102488.23;;;-2.08;84.97
76229;BME280;65021;53.174;18.160;2024-01-30T04:50:16;102487.16;;;-2.05;84.85
76229;BME280;65021;53.174;18.160;2024-01-30T04:52:42;102491.04;;;-2.02;85.02
76229;BME280;65021;53.174;18.160;2024-01-30T04:55:09;102494.09;;;-1.98;84.93
76229;BME280;65021;53.174;18.160;2024-01-30T04:57:35;102493.73;;;-1.94;85.03
76229;BME280;65021;53.174;18.160;2024-01-30T05:00:03;102495.10;;;-1.92;85.09
76229;BME280;65021;53.174;18.160;2024-01-30T05:02:30;102494.95;;;-1.90;85.05
76229;BME280;65021;53.174;18.160;2024-01-30T05:04:56;102495.44;;;-1.88;84.99
76229;BME280;65021;53.174;18.160;2024-01-30T05:07:24;102495.61;;;-1.88;84.99
76229;BME280;65021;53.174;18.160;2024-01-30T05:09:51;102487.52;;;-1.88;84.87
76229;BME280;65021;53.174;18.160;2024-01-30T05:12:18;102489.14;;;-1.89;84.77
76229;BME280;65021;53.174;18.160;2024-01-30T05:14:45;102485.48;;;-1.90;84.85
76229;BME280;65021;53.174;18.160;2024-01-30T05:17:11;102484.11;;;-1.90;84.95
76229;BME280;65021;53.174;18.160;2024-01-30T05:19:39;102481.74;;;-1.90;84.76
76229;BME280;65021;53.174;18.160;2024-01-30T05:22:05;102480.65;;;-1.89;84.79
76229;BME280;65021;53.174;18.160;2024-01-30T05:24:32;102482.81;;;-1.88;84.66
76229;BME280;65021;53.174;18.160;2024-01-30T05:26:59;102479.02;;;-1.90;84.81
76229;BME280;65021;53.174;18.160;2024-01-30T05:29:26;102484.63;;;-1.90;84.78
76229;BME280;65021;53.174;18.160;2024-01-30T05:31:53;102484.41;;;-1.92;84.76
76229;BME280;65021;53.174;18.160;2024-01-30T05:34:19;102484.23;;;-1.91;84.57
76229;BME280;65021;53.174;18.160;2024-01-30T05:36:46;102486.80;;;-1.90;84.74
76229;BME280;65021;53.174;18.160;2024-01-30T05:39:12;102487.13;;;-1.89;84.69
76229;BME280;65021;53.174;18.160;2024-01-30T05:41:39;102490.30;;;-1.89;84.70
76229;BME280;65021;53.174;18.160;2024-01-30T05:44:06;102488.46;;;-1.89;84.76
76229;BME280;65021;53.174;18.160;2024-01-30T05:46:35;102490.35;;;-1.90;84.64
76229;BME280;65021;53.174;18.160;2024-01-30T05:49:02;102491.29;;;-1.91;84.48
76229;BME280;65021;53.174;18.160;2024-01-30T05:51:28;102492.27;;;-1.90;84.51
76229;BME280;65021;53.174;18.160;2024-01-30T05:53:55;102495.84;;;-1.91;84.75
76229;BME280;65021;53.174;18.160;2024-01-30T05:56:21;102496.58;;;-1.89;84.66
76229;BME280;65021;53.174;18.160;2024-01-30T05:58:49;102494.93;;;-1.88;84.61
76229;BME280;65021;53.174;18.160;2024-01-30T06:01:19;102498.16;;;-1.88;84.66
76229;BME280;65021;53.174;18.160;2024-01-30T06:03:45;102497.42;;;-1.87;84.77
76229;BME280;65021;53.174;18.160;2024-01-30T06:06:12;102493.40;;;-1.88;84.66
76229;BME280;65021;53.174;18.160;2024-01-30T06:08:38;102492.10;;;-1.88;84.66
76229;BME280;65021;53.174;18.160;2024-01-30T06:11:05;102491.80;;;-1.89;84.58
76229;BME280;65021;53.174;18.160;2024-01-30T06:13:31;102491.65;;;-1.89;84.61
76229;BME280;65021;53.174;18.160;2024-01-30T06:15:59;102491.40;;;-1.88;84.60
76229;BME280;65021;53.174;18.160;2024-01-30T06:18:26;102492.38;;;-1.88;84.54
76229;BME280;65021;53.174;18.160;2024-01-30T06:20:53;102499.61;;;-1.85;84.63
76229;BME280;65021;53.174;18.160;2024-01-30T06:23:20;102503.74;;;-1.80;84.74
76229;BME280;65021;53.174;18.160;2024-01-30T06:25:46;102504.79;;;-1.74;84.80
76229;BME280;65021;53.174;18.160;2024-01-30T06:28:13;102507.57;;;-1.70;84.67
76229;BME280;65021;53.174;18.160;2024-01-30T06:30:40;102509.41;;;-1.68;84.64
76229;BME280;65021;53.174;18.160;2024-01-30T06:33:06;102504.69;;;-1.66;84.70
76229;BME280;65021;53.174;18.160;2024-01-30T06:35:33;102500.08;;;-1.65;84.67
76229;BME280;65021;53.174;18.160;2024-01-30T06:38:01;102498.96;;;-1.64;84.57
76229;BME280;65021;53.174;18.160;2024-01-30T06:40:28;102498.38;;;-1.65;84.48
76229;BME280;65021;53.174;18.160;2024-01-30T06:42:54;102498.02;;;-1.67;84.46
76229;BME280;65021;53.174;18.160;2024-01-30T06:45:21;102498.58;;;-1.68;84.28
76229;BME280;65021;53.174;18.160;2024-01-30T06:47:47;102495.41;;;-1.68;84.31
76229;BME280;65021;53.174;18.160;2024-01-30T06:50:14;102498.33;;;-1.69;84.34
76229;BME280;65021;53.174;18.160;2024-01-30T06:52:40;102497.11;;;-1.68;84.33
76229;BME280;65021;53.174;18.160;2024-01-30T06:55:08;102498.70;;;-1.67;84.20
76229;BME280;65021;53.174;18.160;2024-01-30T06:57:35;102499.12;;;-1.64;84.29
76229;BME280;65021;53.174;18.160;2024-01-30T07:00:02;102503.88;;;-1.60;84.35
76229;BME280;65021;53.174;18.160;2024-01-30T07:02:29;102505.58;;;-1.56;84.50
76229;BME280;65021;53.174;18.160;2024-01-30T07:04:55;102506.81;;;-1.50;84.43
76229;BME280;65021;53.174;18.160;2024-01-30T07:07:22;102504.25;;;-1.43;84.36
76229;BME280;65021;53.174;18.160;2024-01-30T07:09:48;102499.61;;;-1.36;84.45
76229;BME280;65021;53.174;18.160;2024-01-30T07:12:18;102502.70;;;-1.28;84.45
76229;BME280;65021;53.174;18.160;2024-01-30T07:14:45;102506.35;;;-1.21;84.39
76229;BME280;65021;53.174;18.160;2024-01-30T07:17:11;102510.06;;;-1.15;84.47
76229;BME280;65021;53.174;18.160;2024-01-30T07:19:38;102513.95;;;-1.08;84.28
76229;BME280;65021;53.174;18.160;2024-01-30T07:22:05;102511.30;;;-1.03;84.28
76229;BME280;65021;53.174;18.160;2024-01-30T07:24:31;102508.33;;;-0.98;84.26
76229;BME280;65021;53.174;18.160;2024-01-30T07:26:58;102511.08;;;-0.92;84.01
76229;BME280;65021;53.174;18.160;2024-01-30T07:29:24;102509.95;;;-0.85;84.19
76229;BME280;65021;53.174;18.160;2024-01-30T07:31:51;102514.85;;;-0.76;84.03
76229;BME280;65021;53.174;18.160;2024-01-30T07:34:17;102515.34;;;-0.68;84.04
76229;BME280;65021;53.174;18.160;2024-01-30T07:36:44;102513.37;;;-0.61;84.07
76229;BME280;65021;53.174;18.160;2024-01-30T07:39:11;102511.04;;;-0.55;84.00
76229;BME280;65021;53.174;18.160;2024-01-30T07:41:37;102512.16;;;-0.48;83.84
76229;BME280;65021;53.174;18.160;2024-01-30T07:44:04;102509.23;;;-0.41;83.74
76229;BME280;65021;53.174;18.160;2024-01-30T07:46:31;102507.59;;;-0.34;83.81
76229;BME280;65021;53.174;18.160;2024-01-30T07:48:58;102507.39;;;-0.26;83.79
76229;BME280;65021;53.174;18.160;2024-01-30T07:51:25;102508.05;;;-0.17;83.73
76229;BME280;65021;53.174;18.160;2024-01-30T07:53:51;102510.39;;;-0.09;83.64
76229;BME280;65021;53.174;18.160;2024-01-30T07:56:18;102511.70;;;-0.01;83.72
76229;BME280;65021;53.174;18.160;2024-01-30T07:58:45;102507.95;;;0.07;83.57
76229;BME280;65021;53.174;18.160;2024-01-30T08:01:11;102512.98;;;0.16;83.57
76229;BME280;65021;53.174;18.160;2024-01-30T08:03:38;102513.44;;;0.22;83.35
76229;BME280;65021;53.174;18.160;2024-01-30T08:06:07;102516.23;;;0.29;83.26
76229;BME280;65021;53.174;18.160;2024-01-30T08:08:34;102515.93;;;0.36;83.23
76229;BME280;65021;53.174;18.160;2024-01-30T08:11:01;102519.16;;;0.44;83.08
76229;BME280;65021;53.174;18.160;2024-01-30T08:13:27;102516.91;;;0.52;83.14
76229;BME280;65021;53.174;18.160;2024-01-30T08:15:54;102520.67;;;0.57;82.91
76229;BME280;65021;53.174;18.160;2024-01-30T08:18:20;102521.09;;;0.62;82.90
76229;BME280;65021;53.174;18.160;2024-01-30T08:20:47;102522.64;;;0.69;82.95
76229;BME280;65021;53.174;18.160;2024-01-30T08:23:14;102522.81;;;0.79;82.87
76229;BME280;65021;53.174;18.160;2024-01-30T08:25:40;102520.91;;;0.87;82.83
76229;BME280;65021;53.174;18.160;2024-01-30T08:28:07;102517.66;;;0.95;82.80
76229;BME280;65021;53.174;18.160;2024-01-30T08:30:34;102517.45;;;1.01;82.57
76229;BME280;65021;53.174;18.160;2024-01-30T08:33:00;102516.09;;;1.08;82.49
76229;BME280;65021;53.174;18.160;2024-01-30T08:35:27;102507.98;;;1.16;82.41
76229;BME280;65021;53.174;18.160;2024-01-30T08:37:54;102508.69;;;1.25;82.40
76229;BME280;65021;53.174;18.160;2024-01-30T08:40:20;102509.25;;;1.33;82.27
76229;BME280;65021;53.174;18.160;2024-01-30T08:42:47;102507.70;;;1.41;82.08
76229;BME280;65021;53.174;18.160;2024-01-30T08:45:13;102509.77;;;1.48;81.87
76229;BME280;65021;53.174;18.160;2024-01-30T08:47:40;102510.75;;;1.54;81.88
76229;BME280;65021;53.174;18.160;2024-01-30T08:50:07;102512.45;;;1.59;81.68
76229;BME280;65021;53.174;18.160;2024-01-30T08:52:34;102513.45;;;1.67;81.61
76229;BME280;65021;53.174;18.160;2024-01-30T08:55:01;102513.92;;;1.77;81.59
76229;BME280;65021;53.174;18.160;2024-01-30T08:57:27;102510.79;;;1.86;81.51
76229;BME280;65021;53.174;18.160;2024-01-30T08:59:54;102510.82;;;1.97;81.36
76229;BME280;65021;53.174;18.160;2024-01-30T09:02:21;102509.10;;;2.08;81.39
76229;BME280;65021;53.174;18.160;2024-01-30T09:04:47;102505.15;;;2.17;81.09
76229;BME280;65021;53.174;18.160;2024-01-30T09:07:14;102502.41;;;2.24;80.93
76229;BME280;65021;53.174;18.160;2024-01-30T09:09:41;102502.54;;;2.34;80.86
76229;BME280;65021;53.174;18.160;2024-01-30T09:12:08;102500.11;;;2.43;80.90
76229;BME280;65021;53.174;18.160;2024-01-30T09:14:38;102501.52;;;2.53;80.54
76229;BME280;65021;53.174;18.160;2024-01-30T09:17:05;102496.98;;;2.63;80.55
76229;BME280;65021;53.174;18.160;2024-01-30T09:19:31;102497.77;;;2.72;80.37
76229;BME280;65021;53.174;18.160;2024-01-30T09:21:58;102495.00;;;2.78;80.00
76229;BME280;65021;53.174;18.160;2024-01-30T09:24:26;102494.88;;;2.83;80.01
76229;BME280;65021;53.174;18.160;2024-01-30T09:26:53;102492.50;;;2.86;79.89
76229;BME280;65021;53.174;18.160;2024-01-30T09:29:20;102491.45;;;2.93;79.77
76229;BME280;65021;53.174;18.160;2024-01-30T09:31:47;102493.27;;;3.03;79.89
76229;BME280;65021;53.174;18.160;2024-01-30T09:34:14;102488.86;;;3.11;79.72
76229;BME280;65021;53.174;18.160;2024-01-30T09:36:40;102489.06;;;3.19;79.55
76229;BME280;65021;53.174;18.160;2024-01-30T09:39:07;102486.73;;;3.29;79.44
76229;BME280;65021;53.174;18.160;2024-01-30T09:41:40;102487.77;;;3.39;79.35
76229;BME280;65021;53.174;18.160;2024-01-30T09:44:11;102486.48;;;3.46;79.11
76229;BME280;65021;53.174;18.160;2024-01-30T09:46:38;102484.57;;;3.55;79.16
76229;BME280;65021;53.174;18.160;2024-01-30T09:49:06;102482.20;;;3.65;78.77
76229;BME280;65021;53.174;18.160;2024-01-30T09:51:34;102480.83;;;3.74;78.37
76229;BME280;65021;53.174;18.160;2024-01-30T09:54:02;102477.60;;;3.82;78.31
76229;BME280;65021;53.174;18.160;2024-01-30T09:56:29;102475.39;;;3.88;77.95
76229;BME280;65021;53.174;18.160;2024-01-30T09:58:56;102472.54;;;3.95;77.72
76229;BME280;65021;53.174;18.160;2024-01-30T10:01:23;102472.52;;;4.06;77.44
76229;BME280;65021;53.174;18.160;2024-01-30T10:03:50;102474.21;;;4.14;77.18
76229;BME280;65021;53.174;18.160;2024-01-30T10:06:19;102467.33;;;4.23;77.29
76229;BME280;65021;53.174;18.160;2024-01-30T10:08:47;102462.91;;;4.32;76.95
76229;BME280;65021;53.174;18.160;2024-01-30T10:11:13;102459.47;;;4.41;76.46
76229;BME280;65021;53.174;18.160;2024-01-30T10:13:40;102458.38;;;4.49;76.39
76229;BME280;65021;53.174;18.160;2024-01-30T10:16:06;102453.26;;;4.59;76.51
76229;BME280;65021;53.174;18.160;2024-01-30T10:18:33;102446.67;;;4.68;75.74
76229;BME280;65021;53.174;18.160;2024-01-30T10:20:59;102445.67;;;4.77;75.47
76229;BME280;65021;53.174;18.160;2024-01-30T10:23:26;102441.73;;;4.87;75.34
76229;BME280;65021;53.174;18.160;2024-01-30T10:25:53;102443.45;;;4.95;75.10
76229;BME280;65021;53.174;18.160;2024-01-30T10:28:19;102439.59;;;5.02;74.78
76229;BME280;65021;53.174;18.160;2024-01-30T10:30:57;102442.77;;;5.09;74.28
76229;BME280;65021;53.174;18.160;2024-01-30T10:33:24;102440.17;;;5.15;74.37
76229;BME280;65021;53.174;18.160;2024-01-30T10:35:51;102436.27;;;5.24;74.65
76229;BME280;65021;53.174;18.160;2024-01-30T10:38:19;102438.24;;;5.33;73.97
76229;BME280;65021;53.174;18.160;2024-01-30T10:40:47;102437.80;;;5.42;74.24
76229;BME280;65021;53.174;18.160;2024-01-30T10:43:17;102437.57;;;5.50;73.63
76229;BME280;65021;53.174;18.160;2024-01-30T10:45:49;102432.20;;;5.55;73.07
76229;BME280;65021;53.174;18.160;2024-01-30T10:48:21;102429.90;;;5.61;73.24
76229;BME280;65021;53.174;18.160;2024-01-30T10:50:54;102430.55;;;5.67;72.89
76229;BME280;65021;53.174;18.160;2024-01-30T10:53:22;102432.41;;;5.73;72.93
76229;BME280;65021;53.174;18.160;2024-01-30T10:55:51;102431.17;;;5.82;72.75
76229;BME280;65021;53.174;18.160;2024-01-30T10:58:19;102430.48;;;5.91;72.40
76229;BME280;65021;53.174;18.160;2024-01-30T11:00:46;102430.80;;;5.98;71.90
76229;BME280;65021;53.174;18.160;2024-01-30T11:03:13;102430.61;;;6.09;71.83
76229;BME280;65021;53.174;18.160;2024-01-30T11:05:40;102429.93;;;6.20;71.65
76229;BME280;65021;53.174;18.160;2024-01-30T11:08:23;102427.36;;;6.29;71.16
76229;BME280;65021;53.174;18.160;2024-01-30T11:10:55;102425.64;;;6.39;70.82
76229;BME280;65021;53.174;18.160;2024-01-30T11:13:22;102422.11;;;6.48;69.24
76229;BME280;65021;53.174;18.160;2024-01-30T11:15:48;102418.82;;;6.51;67.81
76229;BME280;65021;53.174;18.160;2024-01-30T11:18:25;102419.17;;;6.58;68.80
76229;BME280;65021;53.174;18.160;2024-01-30T11:20:52;102414.67;;;6.62;68.17
76229;BME280;65021;53.174;18.160;2024-01-30T11:23:22;102413.33;;;6.66;68.39
76229;BME280;65021;53.174;18.160;2024-01-30T11:25:49;102409.14;;;6.68;68.00
76229;BME280;65021;53.174;18.160;2024-01-30T11:28:15;102403.48;;;6.70;68.46
76229;BME280;65021;53.174;18.160;2024-01-30T11:30:45;102401.45;;;6.69;67.01
76229;BME280;65021;53.174;18.160;2024-01-30T11:33:14;102398.01;;;6.71;67.02
76229;BME280;65021;53.174;18.160;2024-01-30T11:35:43;102396.02;;;6.73;67.58
76229;BME280;65021;53.174;18.160;2024-01-30T11:38:11;102395.27;;;6.74;67.18
76229;BME280;65021;53.174;18.160;2024-01-30T11:40:39;102394.08;;;6.74;67.70
76229;BME280;65021;53.174;18.160;2024-01-30T11:43:07;102393.30;;;6.73;67.20
76229;BME280;65021;53.174;18.160;2024-01-30T11:45:35;102395.02;;;6.67;64.24
76229;BME280;65021;53.174;18.160;2024-01-30T11:48:03;102390.25;;;6.66;64.94
76229;BME280;65021;53.174;18.160;2024-01-30T11:50:30;102387.70;;;6.67;65.99
76229;BME280;65021;53.174;18.160;2024-01-30T11:52:58;102386.77;;;6.71;67.42
76229;BME280;65021;53.174;18.160;2024-01-30T11:55:25;102382.88;;;6.72;66.78
76229;BME280;65021;53.174;18.160;2024-01-30T11:57:56;102378.73;;;6.70;67.06
76229;BME280;65021;53.174;18.160;2024-01-30T12:00:23;102376.52;;;6.72;67.59
76229;BME280;65021;53.174;18.160;2024-01-30T12:02:51;102374.02;;;6.71;66.71
76229;BME280;65021;53.174;18.160;2024-01-30T12:05:24;102370.61;;;6.71;67.48
76229;BME280;65021;53.174;18.160;2024-01-30T12:07:52;102369.28;;;6.75;67.71
76229;BME280;65021;53.174;18.160;2024-01-30T12:10:19;102367.27;;;6.81;67.53
76229;BME280;65021;53.174;18.160;2024-01-30T12:12:48;102359.70;;;6.85;66.76
76229;BME280;65021;53.174;18.160;2024-01-30T12:15:16;102359.27;;;6.89;66.83
76229;BME280;65021;53.174;18.160;2024-01-30T12:17:43;102355.86;;;6.90;66.52
76229;BME280;65021;53.174;18.160;2024-01-30T12:20:12;102352.39;;;6.92;65.85
76229;BME280;65021;53.174;18.160;2024-01-30T12:22:43;102347.61;;;6.92;66.07
76229;BME280;65021;53.174;18.160;2024-01-30T12:25:12;102344.17;;;6.92;66.54
76229;BME280;65021;53.174;18.160;2024-01-30T12:27:42;102339.35;;;6.92;66.06
76229;BME280;65021;53.174;18.160;2024-01-30T12:30:13;102337.92;;;6.91;65.12
76229;BME280;65021;53.174;18.160;2024-01-30T12:32:44;102334.12;;;6.93;66.03
76229;BME280;65021;53.174;18.160;2024-01-30T12:35:16;102331.96;;;6.94;66.07
76229;BME280;65021;53.174;18.160;2024-01-30T12:37:44;102330.97;;;6.94;64.75
76229;BME280;65021;53.174;18.160;2024-01-30T12:40:13;102325.63;;;6.94;65.79
76229;BME280;65021;53.174;18.160;2024-01-30T12:42:41;102324.70;;;6.94;65.90